Time;durP1;ratioP1;P1;durP2;ratioP2;P2;SDS_P1;SDS_P2;PMS_P1;PMS_P2;Temp;Humidity;BMP_temperature;BMP_pressure;BME280_temperature;BME280_humidity;BME280_pressure;Samples;Min_cycle;Max_cycle;Signal;HPM_P1;HPM_P2
2023/08/06 00:00:08;;;;;;;14.68;10.63;;;14.60;99.90;;;;;;5035163;28;20041;-79
2023/08/06 00:02:34;;;;;;;15.57;10.70;;;14.50;99.90;;;;;;5016196;28;20620;-77
2023/08/06 00:05:00;;;;;;;12.82;10.45;;;14.50;99.90;;;;;;5019256;28;20033;-78
2023/08/06 00:07:26;;;;;;;11.85;8.90;;;14.50;99.90;;;;;;5017781;28;20034;-78
2023/08/06 00:09:51;;;;;;;12.57;10.30;;;14.50;99.90;;;;;;5018260;28;20033;-79
2023/08/06 00:12:17;;;;;;;14.48;10.02;;;14.50;99.90;;;;;;5034199;28;20041;-79
2023/08/06 00:14:43;;;;;;;13.30;10.10;;;14.50;99.90;;;;;;5016396;28;20053;-79
2023/08/06 00:17:09;;;;;;;14.50;11.45;;;14.50;99.90;;;;;;5033690;28;20414;-79
2023/08/06 00:19:34;;;;;;;13.68;10.15;;;14.40;99.90;;;;;;5014634;28;20033;-80
2023/08/06 00:22:01;;;;;;;12.52;9.77;;;14.40;99.90;;;;;;5001288;28;20449;-79
2023/08/06 00:24:27;;;;;;;14.65;10.18;;;14.40;99.90;;;;;;5004690;28;20116;-80
2023/08/06 00:26:53;;;;;;;11.75;9.43;;;14.40;99.90;;;;;;5019830;28;20132;-79
2023/08/06 00:29:18;;;;;;;12.85;10.00;;;14.40;99.90;;;;;;5031214;28;20053;-78
2023/08/06 00:31:44;;;;;;;12.48;10.00;;;14.40;99.90;;;;;;5017055;28;20042;-78
2023/08/06 00:34:09;;;;;;;13.60;10.13;;;14.50;99.90;;;;;;5017265;28;20041;-80
2023/08/06 00:36:35;;;;;;;14.50;10.45;;;14.40;99.90;;;;;;5018280;28;20095;-80
2023/08/06 00:39:01;;;;;;;12.75;9.88;;;14.40;99.90;;;;;;5017183;28;20379;-80
2023/08/06 00:41:26;;;;;;;14.70;9.68;;;14.40;99.90;;;;;;5032020;28;20029;-80
2023/08/06 00:43:52;;;;;;;12.00;9.25;;;14.40;99.90;;;;;;5021739;28;20039;-79
2023/08/06 00:46:17;;;;;;;12.57;9.52;;;14.40;99.90;;;;;;5032372;28;20033;-80
2023/08/06 00:48:43;;;;;;;13.05;9.80;;;14.40;99.90;;;;;;5033098;28;20045;-80
2023/08/06 00:51:11;;;;;;;13.13;10.27;;;14.40;99.90;;;;;;5017142;28;20076;-80
2023/08/06 00:53:38;;;;;;;12.23;9.75;;;14.40;99.90;;;;;;5033956;28;20088;-79
2023/08/06 00:56:03;;;;;;;14.30;9.98;;;14.40;99.90;;;;;;5032534;28;20131;-79
2023/08/06 00:58:29;;;;;;;11.77;9.80;;;14.40;99.90;;;;;;5033416;28;20062;-79
2023/08/06 01:00:55;;;;;;;11.25;9.43;;;14.40;99.90;;;;;;5020771;28;20038;-79
2023/08/06 01:03:21;;;;;;;14.90;9.70;;;14.40;99.90;;;;;;5018121;28;20103;-78
2023/08/06 01:05:47;;;;;;;10.68;9.02;;;14.40;99.90;;;;;;5032407;28;20037;-79
2023/08/06 01:08:56;;;;;;;11.93;9.48;;;14.40;99.90;;;;;;5033485;28;20095;-79
2023/08/06 01:11:42;;;;;;;11.30;9.23;;;14.50;99.90;;;;;;5016100;28;20069;-79
2023/08/06 01:14:40;;;;;;;13.10;9.82;;;14.40;99.90;;;;;;5003925;28;20057;-78
2023/08/06 01:17:06;;;;;;;12.57;9.73;;;14.40;99.90;;;;;;4996770;28;20084;-79
2023/08/06 01:19:32;;;;;;;12.57;9.45;;;14.40;99.90;;;;;;5031398;28;20045;-79
2023/08/06 01:21:58;;;;;;;15.15;10.13;;;14.40;99.90;;;;;;5016834;28;20042;-78
2023/08/06 01:24:23;;;;;;;13.02;10.50;;;14.40;99.90;;;;;;5032519;28;20041;-78
2023/08/06 01:26:59;;;;;;;13.00;10.07;;;14.40;99.90;;;;;;5033695;28;20041;-76
2023/08/06 01:29:31;;;;;;;12.75;9.55;;;14.40;99.90;;;;;;5032034;28;20077;-76
2023/08/06 01:31:58;;;;;;;12.00;10.05;;;14.40;99.90;;;;;;5033150;28;20421;-76
2023/08/06 01:34:27;;;;;;;13.20;10.02;;;14.50;99.90;;;;;;5031778;28;20048;-77
2023/08/06 01:36:53;;;;;;;13.95;9.77;;;14.40;99.90;;;;;;5032906;28;20072;-78
2023/08/06 01:39:22;;;;;;;14.38;10.15;;;14.50;99.90;;;;;;5033056;28;20048;-76
2023/08/06 01:41:51;;;;;;;14.02;10.48;;;14.40;99.90;;;;;;5026063;28;20044;-76
2023/08/06 01:44:17;;;;;;;13.10;9.82;;;14.40;99.90;;;;;;5016711;28;20045;-77
2023/08/06 01:46:42;;;;;;;14.27;10.77;;;14.40;99.90;;;;;;4999474;28;20540;-79
2023/08/06 01:49:08;;;;;;;13.30;10.75;;;14.40;99.90;;;;;;5009667;28;20041;-79
2023/08/06 01:51:33;;;;;;;14.55;10.07;;;14.30;99.90;;;;;;5031816;28;20045;-78
2023/08/06 01:53:59;;;;;;;13.48;11.20;;;14.30;99.90;;;;;;5031321;28;20056;-78
2023/08/06 01:56:25;;;;;;;14.57;10.98;;;14.30;99.90;;;;;;5029990;28;20405;-78
2023/08/06 01:58:50;;;;;;;14.40;10.75;;;14.30;99.90;;;;;;5032064;28;20045;-78
2023/08/06 02:01:17;;;;;;;13.05;10.98;;;14.30;99.90;;;;;;5008100;28;20072;-79
2023/08/06 02:03:42;;;;;;;13.93;10.93;;;14.40;99.90;;;;;;5031887;28;20033;-78
2023/08/06 02:06:08;;;;;;;14.88;11.57;;;14.40;99.90;;;;;;5032086;28;20074;-78
2023/08/06 02:08:33;;;;;;;14.35;10.77;;;14.30;99.90;;;;;;5031223;28;20435;-78
2023/08/06 02:10:59;;;;;;;14.93;11.07;;;14.30;99.90;;;;;;5031587;28;20044;-78
2023/08/06 02:13:25;;;;;;;13.77;10.70;;;14.30;99.90;;;;;;5014863;28;20045;-78
2023/08/06 02:15:50;;;;;;;13.70;11.57;;;14.20;99.90;;;;;;5029144;28;20030;-78
2023/08/06 02:18:16;;;;;;;14.40;11.68;;;14.30;99.90;;;;;;5030196;28;20037;-79
2023/08/06 02:20:42;;;;;;;14.10;11.02;;;14.30;99.90;;;;;;5032855;28;20486;-79
2023/08/06 02:23:08;;;;;;;13.30;11.52;;;14.20;99.90;;;;;;5008622;28;20505;-79
2023/08/06 02:25:34;;;;;;;13.52;11.02;;;14.20;99.90;;;;;;5018192;28;20034;-79
2023/08/06 02:28:00;;;;;;;16.48;11.90;;;14.20;99.90;;;;;;5013032;28;20391;-79
2023/08/06 02:30:25;;;;;;;14.23;10.88;;;14.20;99.90;;;;;;5005736;28;20045;-77
2023/08/06 02:32:52;;;;;;;13.70;11.32;;;14.20;99.90;;;;;;5029382;28;20044;-78
2023/08/06 02:35:17;;;;;;;14.77;10.23;;;14.20;99.90;;;;;;5014139;28;20068;-78
2023/08/06 02:37:43;;;;;;;15.13;10.82;;;14.20;99.90;;;;;;5031331;28;20572;-78
2023/08/06 02:40:09;;;;;;;14.55;11.10;;;14.20;99.90;;;;;;5015264;28;20037;-79
2023/08/06 02:42:34;;;;;;;13.27;10.18;;;14.20;99.90;;;;;;5032241;28;20120;-79
2023/08/06 02:45:00;;;;;;;13.75;10.88;;;14.10;99.90;;;;;;5023197;28;20120;-79
2023/08/06 02:47:25;;;;;;;13.27;9.55;;;14.10;99.90;;;;;;5030745;28;20084;-79
2023/08/06 02:49:51;;;;;;;14.45;10.43;;;14.20;99.90;;;;;;5030461;28;20045;-78
2023/08/06 02:52:17;;;;;;;12.40;9.98;;;14.20;99.90;;;;;;5014641;28;20037;-78
2023/08/06 02:54:42;;;;;;;12.63;10.57;;;14.20;99.90;;;;;;5010105;28;20041;-79
2023/08/06 02:57:08;;;;;;;12.65;10.20;;;14.30;99.90;;;;;;5013455;28;20516;-80
2023/08/06 02:59:34;;;;;;;12.13;10.40;;;14.20;99.90;;;;;;5031193;28;20087;-79
2023/08/06 03:01:59;;;;;;;14.60;9.55;;;14.20;99.90;;;;;;5031295;28;20034;-79
2023/08/06 03:04:25;;;;;;;11.32;9.20;;;14.20;99.90;;;;;;5012891;28;20040;-79
2023/08/06 03:06:51;;;;;;;12.45;10.02;;;14.20;99.90;;;;;;5030808;28;20111;-79
2023/08/06 03:09:17;;;;;;;14.63;9.45;;;14.20;99.90;;;;;;5029702;28;20088;-79
2023/08/06 03:11:42;;;;;;;12.90;9.38;;;14.20;99.90;;;;;;5032354;28;20445;-78
2023/08/06 03:14:08;;;;;;;13.68;9.20;;;14.20;99.90;;;;;;5029106;28;20034;-79
2023/08/06 03:16:34;;;;;;;12.02;9.30;;;14.30;99.90;;;;;;5029725;28;20033;-78
2023/08/06 03:19:00;;;;;;;10.70;8.93;;;14.30;99.90;;;;;;5023864;28;20444;-78
2023/08/06 03:21:25;;;;;;;11.85;8.93;;;14.40;99.90;;;;;;5013436;28;20025;-78
2023/08/06 03:23:51;;;;;;;14.38;9.60;;;14.40;99.90;;;;;;5009482;28;20040;-79
2023/08/06 03:26:17;;;;;;;13.30;9.68;;;14.40;99.90;;;;;;5031236;28;20136;-78
2023/08/06 03:28:42;;;;;;;11.95;9.55;;;14.40;99.90;;;;;;5026405;28;20433;-78
2023/08/06 03:31:08;;;;;;;12.85;8.98;;;14.40;99.90;;;;;;5031748;28;20480;-79
2023/08/06 03:33:33;;;;;;;11.45;8.85;;;14.40;99.90;;;;;;5013065;28;20057;-79
2023/08/06 03:35:59;;;;;;;12.52;10.35;;;14.40;99.90;;;;;;5030634;28;20445;-79
2023/08/06 03:38:25;;;;;;;13.13;10.13;;;14.40;99.90;;;;;;5029780;28;20405;-79
2023/08/06 03:40:50;;;;;;;11.25;9.43;;;14.30;99.90;;;;;;5014297;28;20033;-78
2023/08/06 03:43:16;;;;;;;14.00;10.43;;;14.20;99.90;;;;;;5013677;28;20044;-78
2023/08/06 03:45:42;;;;;;;12.25;10.50;;;14.20;99.90;;;;;;5030576;28;20037;-78
2023/08/06 03:48:08;;;;;;;14.60;10.40;;;14.20;99.90;;;;;;5001410;28;20497;-79
2023/08/06 03:50:34;;;;;;;12.43;9.55;;;14.10;99.90;;;;;;5029215;28;20041;-79
2023/08/06 03:53:00;;;;;;;12.60;9.90;;;14.10;99.90;;;;;;5034786;28;20037;-79
2023/08/06 03:55:26;;;;;;;12.52;8.90;;;14.10;99.90;;;;;;5029535;28;20486;-79
2023/08/06 03:57:51;;;;;;;11.27;9.57;;;14.10;99.90;;;;;;5030618;28;20437;-79
2023/08/06 04:00:17;;;;;;;14.82;9.98;;;14.20;99.90;;;;;;5012787;28;20044;-79
2023/08/06 04:02:43;;;;;;;12.50;9.45;;;14.20;99.90;;;;;;5013240;28;20501;-79
2023/08/06 04:05:09;;;;;;;12.38;8.93;;;14.20;99.90;;;;;;5013175;28;20038;-79
2023/08/06 04:07:34;;;;;;;11.32;8.65;;;14.20;99.90;;;;;;5022954;28;20095;-79
2023/08/06 04:10:03;;;;;;;12.68;9.90;;;14.20;99.90;;;;;;5026254;28;20111;-78
2023/08/06 04:12:29;;;;;;;13.43;9.35;;;14.20;99.90;;;;;;5020353;28;20092;-79
2023/08/06 04:14:57;;;;;;;12.55;9.73;;;14.10;99.90;;;;;;5023976;28;20038;-79
2023/08/06 04:17:23;;;;;;;12.70;9.68;;;14.10;99.90;;;;;;5013198;28;20045;-78
2023/08/06 04:19:51;;;;;;;10.93;9.02;;;14.10;99.90;;;;;;4997221;28;20038;-79
2023/08/06 04:22:17;;;;;;;11.15;9.10;;;14.10;99.90;;;;;;5004151;28;20030;-79
2023/08/06 04:24:43;;;;;;;13.13;9.18;;;14.00;99.90;;;;;;4997236;28;20122;-79
2023/08/06 04:27:13;;;;;;;10.38;8.52;;;14.00;99.90;;;;;;4999209;28;20064;-80
2023/08/06 04:29:39;;;;;;;13.13;9.35;;;14.00;99.90;;;;;;5015075;28;20072;-79
2023/08/06 04:32:07;;;;;;;13.18;8.73;;;14.00;99.90;;;;;;5015854;28;20041;-79
2023/08/06 04:34:33;;;;;;;10.88;9.07;;;14.00;99.90;;;;;;5024673;28;20124;-79
2023/08/06 04:36:59;;;;;;;11.38;8.85;;;14.00;99.90;;;;;;5010262;28;20455;-79
2023/08/06 04:39:25;;;;;;;14.23;8.95;;;14.00;99.90;;;;;;5031249;28;20063;-79
2023/08/06 04:41:50;;;;;;;11.48;9.13;;;14.00;99.90;;;;;;5024643;28;20544;-78
2023/08/06 04:44:16;;;;;;;11.50;8.82;;;14.00;99.90;;;;;;5007161;28;20508;-79
2023/08/06 04:46:42;;;;;;;11.52;9.13;;;14.00;99.90;;;;;;5024279;28;20045;-78
2023/08/06 04:49:07;;;;;;;10.10;7.75;;;14.00;99.90;;;;;;5000930;28;20482;-79
2023/08/06 04:51:33;;;;;;;10.75;8.18;;;14.00;99.90;;;;;;5022738;28;20111;-78
2023/08/06 04:53:58;;;;;;;11.02;9.05;;;14.00;99.90;;;;;;5034433;28;20038;-78
2023/08/06 04:56:24;;;;;;;12.07;9.13;;;14.00;99.90;;;;;;5025990;28;20042;-78
2023/08/06 04:58:50;;;;;;;10.40;9.23;;;14.00;99.90;;;;;;4999665;28;20481;-78
2023/08/06 05:01:16;;;;;;;11.43;9.30;;;14.00;99.90;;;;;;5015388;28;20049;-79
2023/08/06 05:03:41;;;;;;;12.85;9.43;;;14.00;99.90;;;;;;5030266;28;20406;-78
2023/08/06 05:06:07;;;;;;;11.63;8.93;;;14.00;99.90;;;;;;5018845;28;20049;-78
2023/08/06 05:08:32;;;;;;;12.60;10.00;;;14.00;99.90;;;;;;5007926;28;20048;-78
2023/08/06 05:10:58;;;;;;;12.48;10.07;;;13.90;99.90;;;;;;4999861;28;20567;-78
2023/08/06 05:13:25;;;;;;;11.65;10.07;;;13.90;99.90;;;;;;5016788;28;20038;-78
2023/08/06 05:15:51;;;;;;;12.73;10.18;;;13.90;99.90;;;;;;5003845;28;20137;-78
2023/08/06 05:18:16;;;;;;;12.85;10.15;;;13.90;99.90;;;;;;5015531;28;20112;-78
2023/08/06 05:20:43;;;;;;;13.15;10.15;;;13.90;99.90;;;;;;5030324;28;20037;-78
2023/08/06 05:23:08;;;;;;;12.50;10.05;;;13.90;99.90;;;;;;5017491;28;20390;-78
2023/08/06 05:25:40;;;;;;;11.35;10.05;;;13.90;99.90;;;;;;5014228;28;20042;-77
2023/08/06 05:28:05;;;;;;;12.53;9.93;;;13.80;99.90;;;;;;5014941;28;20475;-78
2023/08/06 05:30:31;;;;;;;11.77;9.45;;;13.90;99.90;;;;;;5029725;28;20526;-78
2023/08/06 05:32:57;;;;;;;12.50;10.07;;;13.90;99.90;;;;;;5013427;28;20164;-78
2023/08/06 05:35:23;;;;;;;11.48;10.25;;;13.90;99.90;;;;;;5006191;28;20409;-78
2023/08/06 05:37:49;;;;;;;12.05;9.70;;;13.90;99.90;;;;;;5003857;28;20487;-78
2023/08/06 05:40:15;;;;;;;12.52;9.50;;;13.90;99.90;;;;;;5032460;28;20115;-78
2023/08/06 05:42:41;;;;;;;14.82;9.85;;;14.10;99.90;;;;;;5000923;28;20038;-78
2023/08/06 05:45:07;;;;;;;15.25;10.48;;;14.10;99.90;;;;;;5020344;28;20045;-78
2023/08/06 05:47:33;;;;;;;13.27;10.52;;;14.20;99.90;;;;;;5019809;28;20103;-78
2023/08/06 05:49:58;;;;;;;12.55;10.48;;;14.20;99.90;;;;;;5014160;28;20046;-78
2023/08/06 05:52:24;;;;;;;13.38;11.15;;;14.20;99.90;;;;;;4996571;28;20042;-78
2023/08/06 05:54:50;;;;;;;14.05;10.77;;;14.30;99.90;;;;;;5023653;28;20107;-79
2023/08/06 05:57:16;;;;;;;14.45;11.23;;;14.30;99.90;;;;;;5031833;28;20037;-78
2023/08/06 05:59:42;;;;;;;15.15;10.38;;;14.40;99.90;;;;;;5029275;28;20040;-78
2023/08/06 06:02:08;;;;;;;12.85;10.15;;;14.40;99.90;;;;;;5012818;28;20029;-78
2023/08/06 06:04:33;;;;;;;14.65;10.52;;;14.40;99.90;;;;;;5030801;28;20450;-78
2023/08/06 06:06:59;;;;;;;12.00;10.38;;;14.40;99.90;;;;;;5030588;28;20037;-78
2023/08/06 06:09:24;;;;;;;12.57;10.68;;;14.50;99.90;;;;;;5031276;28;20038;-77
2023/08/06 06:11:50;;;;;;;12.90;9.65;;;14.50;99.90;;;;;;5016399;28;20128;-76
2023/08/06 06:14:19;;;;;;;10.73;8.60;;;14.60;99.90;;;;;;5026461;28;20500;-75
2023/08/06 06:16:45;;;;;;;12.70;9.98;;;14.70;99.90;;;;;;5033333;28;20095;-78
2023/08/06 06:19:11;;;;;;;12.15;10.23;;;14.80;99.90;;;;;;5014905;28;20462;-79
2023/08/06 06:21:38;;;;;;;15.40;11.32;;;14.80;99.90;;;;;;5029238;28;20033;-79
2023/08/06 06:24:04;;;;;;;14.32;11.43;;;14.80;99.90;;;;;;5001147;28;20033;-79
2023/08/06 06:26:31;;;;;;;15.98;12.00;;;14.80;99.90;;;;;;5012256;28;20544;-79
2023/08/06 06:28:56;;;;;;;13.43;10.57;;;14.70;99.90;;;;;;4996193;28;20057;-79
2023/08/06 06:31:22;;;;;;;17.08;11.38;;;14.80;99.90;;;;;;5010053;28;20398;-78
2023/08/06 06:33:47;;;;;;;13.18;10.55;;;14.80;99.90;;;;;;5030725;28;20053;-79
2023/08/06 06:36:13;;;;;;;16.83;11.30;;;14.90;99.90;;;;;;5025365;28;20100;-79
2023/08/06 06:38:38;;;;;;;15.40;12.68;;;15.00;99.90;;;;;;5012787;28;20047;-79
2023/08/06 06:41:04;;;;;;;15.18;13.00;;;15.00;99.90;;;;;;5032680;28;20043;-79
2023/08/06 06:43:30;;;;;;;14.38;11.32;;;15.00;99.90;;;;;;5004843;28;20032;-79
2023/08/06 06:45:59;;;;;;;14.18;10.40;;;15.10;99.90;;;;;;5013001;28;20045;-79
2023/08/06 06:48:29;;;;;;;13.80;11.30;;;15.10;99.90;;;;;;4996188;28;20112;-79
2023/08/06 06:50:55;;;;;;;13.25;10.82;;;15.10;99.90;;;;;;5010535;28;20033;-78
2023/08/06 06:53:27;;;;;;;12.43;10.90;;;15.10;99.90;;;;;;5030630;28;20121;-79
2023/08/06 06:56:03;;;;;;;12.77;11.23;;;15.10;99.90;;;;;;5013860;28;20041;-79
2023/08/06 06:58:28;;;;;;;12.45;10.38;;;15.10;99.90;;;;;;5011924;28;20073;-79
2023/08/06 07:00:54;;;;;;;12.52;11.20;;;15.10;99.90;;;;;;5020766;28;20073;-79
2023/08/06 07:03:20;;;;;;;12.13;10.30;;;15.20;99.90;;;;;;5022591;28;20048;-79
2023/08/06 07:05:46;;;;;;;12.80;9.95;;;15.20;99.90;;;;;;5032039;28;20029;-79
2023/08/06 07:08:12;;;;;;;13.38;11.68;;;15.30;99.90;;;;;;5031375;28;20171;-79
2023/08/06 07:10:37;;;;;;;12.80;10.18;;;15.20;99.90;;;;;;5026825;28;20117;-79
2023/08/06 07:13:03;;;;;;;13.13;10.75;;;15.20;99.90;;;;;;5012905;28;20547;-79
2023/08/06 07:15:29;;;;;;;12.82;11.38;;;15.30;99.90;;;;;;5011055;28;20092;-80
2023/08/06 07:17:55;;;;;;;12.18;9.63;;;15.30;99.90;;;;;;5025594;28;20486;-79
2023/08/06 07:20:20;;;;;;;11.57;9.40;;;15.40;99.90;;;;;;5028186;28;20033;-79
2023/08/06 07:22:46;;;;;;;12.93;10.63;;;15.40;99.90;;;;;;5006631;28;20065;-79
2023/08/06 07:25:12;;;;;;;13.25;9.80;;;15.40;99.90;;;;;;5009869;28;20038;-79
2023/08/06 07:27:37;;;;;;;12.95;9.98;;;15.50;99.90;;;;;;5026292;28;20124;-79
2023/08/06 07:30:05;;;;;;;11.60;9.27;;;15.50;99.90;;;;;;5026917;28;20072;-79
2023/08/06 07:32:30;;;;;;;9.80;8.68;;;15.50;99.90;;;;;;5031881;28;20074;-79
2023/08/06 07:34:59;;;;;;;13.25;10.50;;;15.60;99.90;;;;;;5030773;28;20045;-79
2023/08/06 07:37:25;;;;;;;11.02;9.02;;;15.60;99.90;;;;;;5027892;28;20042;-79
2023/08/06 07:39:50;;;;;;;12.32;9.73;;;15.70;99.90;;;;;;5008538;28;20096;-79
2023/08/06 07:42:16;;;;;;;10.63;8.90;;;15.70;99.90;;;;;;5031113;28;20037;-79
2023/08/06 07:44:42;;;;;;;11.65;8.27;;;15.80;99.90;;;;;;5028960;28;20069;-79
2023/08/06 07:47:07;;;;;;;11.98;10.10;;;15.80;99.90;;;;;;5009480;28;20154;-79
2023/08/06 07:49:33;;;;;;;10.98;9.10;;;15.80;99.90;;;;;;5001725;28;20054;-79
2023/08/06 07:51:58;;;;;;;11.82;8.18;;;15.90;99.90;;;;;;5010666;28;20045;-79
2023/08/06 07:54:24;;;;;;;9.88;8.48;;;15.90;99.90;;;;;;5001696;28;20549;-79
2023/08/06 07:56:50;;;;;;;11.65;9.30;;;16.00;99.90;;;;;;5020209;28;20264;-79
2023/08/06 07:59:15;;;;;;;12.48;9.48;;;15.90;99.90;;;;;;5027710;28;20043;-80
2023/08/06 08:01:41;;;;;;;11.15;8.52;;;15.90;99.90;;;;;;5032751;28;20394;-80
2023/08/06 08:04:07;;;;;;;12.30;9.55;;;16.00;99.90;;;;;;5021450;28;20425;-79
2023/08/06 08:06:33;;;;;;;12.60;9.70;;;16.00;99.90;;;;;;5033592;28;20489;-80
2023/08/06 08:08:59;;;;;;;12.23;10.15;;;16.00;99.90;;;;;;5007642;28;20045;-80
2023/08/06 08:11:26;;;;;;;11.15;9.05;;;16.20;99.90;;;;;;5010407;28;20397;-82
2023/08/06 08:13:51;;;;;;;12.68;9.75;;;16.30;99.90;;;;;;5009020;28;20406;-75
2023/08/06 08:16:17;;;;;;;10.68;8.93;;;16.50;99.90;;;;;;5028918;28;20040;-75
2023/08/06 08:18:42;;;;;;;11.43;8.68;;;16.50;99.90;;;;;;5010125;28;20383;-80
2023/08/06 08:21:08;;;;;;;10.73;7.90;;;16.70;99.90;;;;;;5033910;28;20045;-80
2023/08/06 08:23:34;;;;;;;10.77;7.82;;;16.70;99.90;;;;;;5035278;28;20033;-79
2023/08/06 08:26:01;;;;;;;11.15;8.40;;;16.70;99.90;;;;;;5035072;28;20049;-78
2023/08/06 08:28:27;;;;;;;13.07;8.27;;;16.80;99.90;;;;;;5008528;28;20090;-75
2023/08/06 08:30:53;;;;;;;11.68;7.55;;;16.80;99.90;;;;;;5009098;28;20501;-75
2023/08/06 08:33:18;;;;;;;9.75;8.13;;;16.80;99.90;;;;;;5018251;28;20041;-75
2023/08/06 08:35:45;;;;;;;9.27;7.65;;;16.90;99.90;;;;;;5009113;28;20042;-75
2023/08/06 08:38:11;;;;;;;11.73;8.32;;;16.90;99.90;;;;;;5016702;28;20048;-76
2023/08/06 08:40:45;;;;;;;9.77;8.15;;;17.10;99.90;;;;;;5033939;28;20030;-74
2023/08/06 08:43:12;;;;;;;9.93;8.23;;;17.20;99.90;;;;;;5023235;28;20037;-74
2023/08/06 08:45:39;;;;;;;10.45;7.90;;;17.30;99.90;;;;;;5016829;28;20046;-74
2023/08/06 08:48:06;;;;;;;11.35;7.80;;;17.40;99.90;;;;;;5015231;28;20044;-74
2023/08/06 08:50:32;;;;;;;10.23;7.20;;;17.60;99.90;;;;;;5009863;28;20037;-76
2023/08/06 08:52:57;;;;;;;10.13;7.60;;;17.80;99.90;;;;;;5031567;28;20068;-76
2023/08/06 08:55:23;;;;;;;9.57;6.30;;;18.00;99.90;;;;;;5032667;28;20094;-72
2023/08/06 08:57:49;;;;;;;7.60;5.47;;;18.00;99.90;;;;;;5002491;28;20069;-73
2023/08/06 09:00:15;;;;;;;8.13;5.18;;;18.10;99.90;;;;;;5029313;28;20065;-73
2023/08/06 09:02:42;;;;;;;8.13;5.10;;;18.10;99.90;;;;;;5032700;28;20075;-73
2023/08/06 09:05:09;;;;;;;8.38;5.40;;;18.10;99.90;;;;;;5015141;28;20037;-73
2023/08/06 09:07:48;;;;;;;7.85;5.50;;;18.10;99.90;;;;;;5031365;28;20037;-75
2023/08/06 09:10:17;;;;;;;25.15;6.40;;;18.10;99.90;;;;;;5028354;28;20049;-75
2023/08/06 09:12:44;;;;;;;9.93;5.93;;;18.00;99.90;;;;;;5030055;28;20379;-76
2023/08/06 09:15:10;;;;;;;10.40;6.47;;;18.10;99.90;;;;;;5006624;28;20402;-77
2023/08/06 09:17:36;;;;;;;13.60;6.00;;;18.20;99.90;;;;;;5012946;28;20037;-74
2023/08/06 09:20:15;;;;;;;12.15;5.95;;;18.40;99.90;;;;;;5008042;28;20037;-73
2023/08/06 09:22:41;;;;;;;11.13;5.18;;;18.60;99.90;;;;;;5016510;28;20445;-72
2023/08/06 09:25:10;;;;;;;7.72;4.60;;;18.70;99.90;;;;;;5021524;28;20539;-73
2023/08/06 09:27:37;;;;;;;7.32;4.00;;;18.80;99.90;;;;;;5010387;28;20128;-76
2023/08/06 09:30:04;;;;;;;6.75;3.90;;;19.00;99.90;;;;;;5010587;28;20042;-77
2023/08/06 09:32:51;;;;;;;6.15;4.20;;;19.00;99.90;;;;;;5025894;28;20034;-76
2023/08/06 09:35:18;;;;;;;5.40;3.40;;;19.10;99.90;;;;;;5026222;28;20493;-76
2023/08/06 09:37:44;;;;;;;6.57;3.15;;;19.10;99.90;;;;;;5027979;28;20038;-77
2023/08/06 09:40:27;;;;;;;7.30;3.47;;;19.10;99.90;;;;;;5033134;28;20053;-77
2023/08/06 09:42:52;;;;;;;4.80;3.10;;;19.00;99.90;;;;;;5033494;28;20036;-77
2023/08/06 09:45:18;;;;;;;5.95;2.95;;;19.00;99.90;;;;;;5033835;28;20037;-77
2023/08/06 09:47:44;;;;;;;4.95;3.03;;;19.00;99.90;;;;;;5029129;28;20045;-77
2023/08/06 09:50:20;;;;;;;5.82;2.70;;;19.10;99.90;;;;;;5031176;28;20042;-76
2023/08/06 09:52:50;;;;;;;4.78;2.38;;;19.20;99.90;;;;;;5033309;28;20048;-77
2023/08/06 09:55:16;;;;;;;5.68;2.65;;;19.20;99.90;;;;;;4999632;28;20045;-77
2023/08/06 09:57:42;;;;;;;5.78;2.70;;;19.20;99.90;;;;;;5031772;28;20038;-77
2023/08/06 10:00:11;;;;;;;6.72;2.92;;;19.20;99.90;;;;;;5015140;28;20521;-77
2023/08/06 10:02:41;;;;;;;5.35;2.53;;;19.30;99.90;;;;;;5016118;28;20045;-77
2023/08/06 10:05:10;;;;;;;4.05;2.40;;;19.30;99.90;;;;;;5029971;28;20068;-77
2023/08/06 10:07:36;;;;;;;4.90;2.33;;;19.40;99.90;;;;;;5031514;28;20038;-77
2023/08/06 10:10:02;;;;;;;4.15;2.30;;;19.40;99.90;;;;;;5010328;28;20502;-77
2023/08/06 10:12:31;;;;;;;4.30;2.50;;;19.40;99.90;;;;;;5006774;28;20037;-77
2023/08/06 10:14:59;;;;;;;5.13;2.50;;;19.60;99.90;;;;;;5027766;28;20550;-77
2023/08/06 10:17:26;;;;;;;3.63;2.00;;;19.60;99.90;;;;;;5021379;28;20751;-77
2023/08/06 10:19:55;;;;;;;5.70;2.15;;;19.70;99.90;;;;;;5021075;28;20045;-77
2023/08/06 10:22:21;;;;;;;5.38;2.33;;;19.80;99.90;;;;;;5018419;28;20033;-77
2023/08/06 10:24:52;;;;;;;4.25;2.30;;;19.90;99.90;;;;;;5002741;28;20113;-78
2023/08/06 10:27:29;;;;;;;5.18;2.35;;;20.10;99.90;;;;;;5006559;28;20132;-77
2023/08/06 10:29:55;;;;;;;4.63;2.20;;;20.20;99.90;;;;;;5022142;28;20421;-77
2023/08/06 10:32:22;;;;;;;4.75;2.53;;;20.20;99.90;;;;;;5000207;28;20049;-77
2023/08/06 10:34:58;;;;;;;4.88;2.10;;;20.40;99.90;;;;;;5004169;28;20042;-77
2023/08/06 10:37:36;;;;;;;7.97;2.42;;;20.50;99.90;;;;;;5005568;28;20516;-78
2023/08/06 10:40:03;;;;;;;4.28;2.08;;;20.70;99.90;;;;;;5007589;28;20060;-78
2023/08/06 10:42:29;;;;;;;4.45;2.15;;;20.80;99.90;;;;;;5006692;28;20152;-78
2023/08/06 10:45:11;;;;;;;4.47;2.30;;;20.90;99.90;;;;;;5000434;28;20521;-77
2023/08/06 10:47:40;;;;;;;4.75;1.90;;;21.00;99.90;;;;;;5026026;28;20501;-77
2023/08/06 10:50:07;;;;;;;3.72;2.00;;;21.10;99.90;;;;;;5025505;28;20052;-77
2023/08/06 10:52:33;;;;;;;4.70;2.30;;;21.10;99.90;;;;;;5020899;28;20160;-77
2023/08/06 10:54:59;;;;;;;4.63;2.10;;;21.10;99.90;;;;;;5022956;28;20491;-78
2023/08/06 10:57:24;;;;;;;3.72;2.00;;;21.20;99.90;;;;;;5019703;28;20134;-78
2023/08/06 10:59:50;;;;;;;5.15;2.13;;;21.30;99.90;;;;;;5026816;28;20065;-77
2023/08/06 11:02:16;;;;;;;3.80;1.95;;;21.30;99.90;;;;;;5033393;28;20079;-78
2023/08/06 11:04:42;;;;;;;3.05;2.00;;;21.30;99.90;;;;;;5009884;28;20061;-78
2023/08/06 11:07:07;;;;;;;4.10;2.22;;;21.20;99.90;;;;;;5026020;28;20048;-78
2023/08/06 11:09:33;;;;;;;5.32;2.20;;;21.40;99.90;;;;;;5025261;28;20512;-78
2023/08/06 11:11:59;;;;;;;5.40;1.90;;;21.30;99.90;;;;;;5008003;28;20049;-78
2023/08/06 11:14:24;;;;;;;3.67;2.10;;;21.40;99.90;;;;;;5020860;28;20106;-78
2023/08/06 11:16:50;;;;;;;3.85;2.10;;;21.40;99.90;;;;;;5023307;28;20030;-78
2023/08/06 11:19:16;;;;;;;4.72;2.10;;;21.30;99.90;;;;;;5025382;28;20053;-78
2023/08/06 11:21:43;;;;;;;4.78;2.00;;;21.10;99.90;;;;;;5021300;28;20037;-78
2023/08/06 11:24:12;;;;;;;3.72;1.98;;;21.00;99.90;;;;;;4999378;28;20038;-78
2023/08/06 11:26:40;;;;;;;3.03;1.77;;;20.90;99.90;;;;;;5004659;28;20061;-78
2023/08/06 11:29:06;;;;;;;4.72;1.90;;;20.80;99.90;;;;;;5030208;28;20134;-77
2023/08/06 11:31:31;;;;;;;3.35;1.80;;;20.70;99.90;;;;;;5008971;28;20120;-78
2023/08/06 11:33:57;;;;;;;3.20;1.90;;;20.60;99.90;;;;;;5007071;28;20167;-78
2023/08/06 11:36:34;;;;;;;3.88;1.80;;;20.50;99.90;;;;;;5005749;28;20073;-77
2023/08/06 11:39:00;;;;;;;5.95;2.33;;;20.40;99.90;;;;;;5023924;28;20088;-78
2023/08/06 11:41:28;;;;;;;3.03;1.92;;;20.20;99.90;;;;;;5013279;28;20040;-78
2023/08/06 11:43:54;;;;;;;3.47;2.00;;;20.20;99.90;;;;;;5028708;28;20904;-78
2023/08/06 11:46:20;;;;;;;4.70;2.25;;;20.20;99.90;;;;;;5029646;28;20037;-78
2023/08/06 11:48:58;;;;;;;4.18;1.85;;;20.20;99.90;;;;;;5025982;28;20035;-78
2023/08/06 11:51:27;;;;;;;4.57;2.22;;;20.10;99.90;;;;;;5025495;28;20136;-78
2023/08/06 11:53:57;;;;;;;5.05;2.10;;;20.20;99.90;;;;;;5014326;28;20505;-78
2023/08/06 11:56:24;;;;;;;3.38;2.00;;;20.40;99.90;;;;;;5024396;28;20505;-78
2023/08/06 11:58:50;;;;;;;4.88;2.10;;;20.50;99.90;;;;;;5012759;28;20033;-78
2023/08/06 12:01:16;;;;;;;4.43;2.03;;;20.50;99.90;;;;;;5026266;28;20033;-78
2023/08/06 12:03:41;;;;;;;3.20;1.75;;;20.50;99.90;;;;;;5029515;28;20044;-77
2023/08/06 12:06:07;;;;;;;4.80;2.20;;;20.30;99.90;;;;;;5023784;28;20048;-78
2023/08/06 12:08:33;;;;;;;3.70;2.10;;;20.30;99.90;;;;;;5012385;28;20498;-78
2023/08/06 12:10:59;;;;;;;3.30;2.00;;;20.40;99.90;;;;;;5028036;28;20042;-78
2023/08/06 12:13:24;;;;;;;3.85;2.00;;;20.40;99.90;;;;;;5027606;28;20041;-78
2023/08/06 12:15:54;;;;;;;4.07;2.13;;;20.30;99.90;;;;;;5008574;28;20037;-78
2023/08/06 12:18:20;;;;;;;4.97;2.10;;;20.40;99.90;;;;;;5005958;28;20116;-79
2023/08/06 12:20:46;;;;;;;4.75;2.20;;;20.30;99.90;;;;;;5020064;28;20097;-78
2023/08/06 12:23:15;;;;;;;2.63;1.80;;;20.20;99.90;;;;;;5044215;28;20083;-78
2023/08/06 12:25:41;;;;;;;4.07;2.03;;;20.20;99.90;;;;;;5025008;28;20041;-79
2023/08/06 12:28:07;;;;;;;4.30;2.13;;;20.10;99.90;;;;;;5025801;28;20537;-78
2023/08/06 12:30:33;;;;;;;3.70;2.00;;;19.90;99.90;;;;;;5025806;28;20099;-79
2023/08/06 12:32:58;;;;;;;4.32;2.20;;;20.00;99.90;;;;;;5023192;28;20038;-78